Hovedside
METAR-TAF:

METAR-TAF

Lufthavner :

Haugesund, Norge

Haugesund lufthavn

breddegrad: 59-21N, lengdegrad: 005-13E, høyde over havet: 2 m

Gjeldene værobservasjon

Denne rapporten ble laget for 18 minutter siden, klokken 04:20 UTC
Vind 11 kt fra Nord
Temperatur 2°C
Luftfuktighet 75%
Trykk 1000 hPa
Sikt 10 km eller mer
ingen skyer under 1500 m og ingen bygeskyer

METAR: ENHD 250420Z 01011KT CAVOK 02/M02 Q1000

Tid: 06:38 (04:38 UTC)

Varsel

Denne rapporten ble laget for 2 timer og 38 minutter siden, klokken 02:00 UTC
Varsel gyldig fra 25. klokken 04 UTC til 25. klokken 12 UTC
Vind 10 kt fra Nord
Sikt 10 km eller mer
Få skyer i en høyde av 3000 ft
Blir
fra 25. klokken 08 UTC til 25. klokken 10 UTC
Vind 20 kt fra Nord

TAF: ENHD 250200Z 2504/2512 35010KT 9999 FEW030 BECMG 2508/2510 36020KT

Værobservasjoner og værvarsel for over 4000 flyplasser (METAR- og TAF-rapporter).

Tilgjengelige stasjoner er representert av de røde og gule prikkene på kartet.

Hold musepekeren over prikken for å se navnet på stasjonen.

Klikk så for å se værobservasjoner og -varsler.

For å forandre kartet kan du klikke på den grønne knappen med svart kryss for å zoome inn, på den grønne knappen med strek for å zoome ut, eller på de grønne pilene for å se tilstøtende kart.


METAR-TAF: